sensor_id;sensor_type;location;lat;lon;timestamp;temperature;humidity
67093;SHT31;54011;50.772;7.730;2023-07-13T00:00:28;21.91;50.92
67093;SHT31;54011;50.772;7.730;2023-07-13T00:02:54;22.05;50.97
67093;SHT31;54011;50.772;7.730;2023-07-13T00:05:20;22.03;51.02
67093;SHT31;54011;50.772;7.730;2023-07-13T00:07:47;22.14;50.78
67093;SHT31;54011;50.772;7.730;2023-07-13T00:10:13;22.03;51.35
67093;SHT31;54011;50.772;7.730;2023-07-13T00:12:39;21.96;52.11
67093;SHT31;54011;50.772;7.730;2023-07-13T00:15:14;21.83;51.49
67093;SHT31;54011;50.772;7.730;2023-07-13T00:17:41;21.84;52.43
67093;SHT31;54011;50.772;7.730;2023-07-13T00:20:10;21.77;52.29
67093;SHT31;54011;50.772;7.730;2023-07-13T00:22:36;21.72;52.58
67093;SHT31;54011;50.772;7.730;2023-07-13T00:25:02;21.56;53.13
67093;SHT31;54011;50.772;7.730;2023-07-13T00:27:28;21.64;53.71
67093;SHT31;54011;50.772;7.730;2023-07-13T00:29:55;21.31;53.38
67093;SHT31;54011;50.772;7.730;2023-07-13T00:32:21;21.52;52.80
67093;SHT31;54011;50.772;7.730;2023-07-13T00:34:46;21.33;53.66
67093;SHT31;54011;50.772;7.730;2023-07-13T00:37:12;21.21;53.15
67093;SHT31;54011;50.772;7.730;2023-07-13T00:39:38;21.16;53.50
67093;SHT31;54011;50.772;7.730;2023-07-13T00:42:04;21.06;53.41
67093;SHT31;54011;50.772;7.730;2023-07-13T00:44:30;20.84;53.92
67093;SHT31;54011;50.772;7.730;2023-07-13T00:46:56;20.85;53.75
67093;SHT31;54011;50.772;7.730;2023-07-13T00:49:26;20.92;53.43
67093;SHT31;54011;50.772;7.730;2023-07-13T00:51:59;21.08;53.58
67093;SHT31;54011;50.772;7.730;2023-07-13T00:54:35;21.29;53.54
67093;SHT31;54011;50.772;7.730;2023-07-13T00:57:04;21.23;53.62
67093;SHT31;54011;50.772;7.730;2023-07-13T00:59:31;20.92;53.52
67093;SHT31;54011;50.772;7.730;2023-07-13T01:01:57;20.96;54.74
67093;SHT31;54011;50.772;7.730;2023-07-13T01:04:24;21.05;54.16
67093;SHT31;54011;50.772;7.730;2023-07-13T01:06:50;21.05;54.79
67093;SHT31;54011;50.772;7.730;2023-07-13T01:09:16;20.71;55.57
67093;SHT31;54011;50.772;7.730;2023-07-13T01:11:43;20.91;55.23
67093;SHT31;54011;50.772;7.730;2023-07-13T01:14:10;21.12;54.15
67093;SHT31;54011;50.772;7.730;2023-07-13T01:16:37;21.23;53.69
67093;SHT31;54011;50.772;7.730;2023-07-13T01:19:15;20.85;54.64
67093;SHT31;54011;50.772;7.730;2023-07-13T01:21:49;20.88;54.40
67093;SHT31;54011;50.772;7.730;2023-07-13T01:24:15;20.78;54.91
67093;SHT31;54011;50.772;7.730;2023-07-13T01:26:41;20.70;54.65
67093;SHT31;54011;50.772;7.730;2023-07-13T01:29:06;20.81;55.55
67093;SHT31;54011;50.772;7.730;2023-07-13T01:31:33;20.70;54.45
67093;SHT31;54011;50.772;7.730;2023-07-13T01:33:58;20.70;54.30
67093;SHT31;54011;50.772;7.730;2023-07-13T01:36:24;20.71;53.79
67093;SHT31;54011;50.772;7.730;2023-07-13T01:38:49;20.73;54.23
67093;SHT31;54011;50.772;7.730;2023-07-13T01:41:15;20.75;53.94
67093;SHT31;54011;50.772;7.730;2023-07-13T01:43:41;20.58;54.32
67093;SHT31;54011;50.772;7.730;2023-07-13T01:46:06;20.30;54.63
67093;SHT31;54011;50.772;7.730;2023-07-13T01:48:32;20.84;54.46
67093;SHT31;54011;50.772;7.730;2023-07-13T01:50:59;20.68;55.07
67093;SHT31;54011;50.772;7.730;2023-07-13T01:53:25;20.57;54.90
67093;SHT31;54011;50.772;7.730;2023-07-13T01:55:51;20.58;54.53
67093;SHT31;54011;50.772;7.730;2023-07-13T01:58:16;20.47;55.68
67093;SHT31;54011;50.772;7.730;2023-07-13T02:00:42;20.24;55.79
67093;SHT31;54011;50.772;7.730;2023-07-13T02:03:07;20.27;55.12
67093;SHT31;54011;50.772;7.730;2023-07-13T02:05:33;20.53;54.84
67093;SHT31;54011;50.772;7.730;2023-07-13T02:07:58;20.27;56.23
67093;SHT31;54011;50.772;7.730;2023-07-13T02:10:24;20.40;55.48
67093;SHT31;54011;50.772;7.730;2023-07-13T02:12:50;20.32;55.70
67093;SHT31;54011;50.772;7.730;2023-07-13T02:15:16;20.37;55.25
67093;SHT31;54011;50.772;7.730;2023-07-13T02:17:42;20.24;55.74
67093;SHT31;54011;50.772;7.730;2023-07-13T02:20:08;20.03;55.78
67093;SHT31;54011;50.772;7.730;2023-07-13T02:22:34;20.02;56.49
67093;SHT31;54011;50.772;7.730;2023-07-13T02:25:00;20.13;55.91
67093;SHT31;54011;50.772;7.730;2023-07-13T02:27:26;20.08;56.75
67093;SHT31;54011;50.772;7.730;2023-07-13T02:29:52;20.06;56.07
67093;SHT31;54011;50.772;7.730;2023-07-13T02:32:20;19.90;57.27
67093;SHT31;54011;50.772;7.730;2023-07-13T02:34:45;19.76;57.09
67093;SHT31;54011;50.772;7.730;2023-07-13T02:37:11;19.52;58.59
67093;SHT31;54011;50.772;7.730;2023-07-13T02:39:37;19.64;58.87
67093;SHT31;54011;50.772;7.730;2023-07-13T02:42:03;19.43;59.34
67093;SHT31;54011;50.772;7.730;2023-07-13T02:44:28;19.18;59.98
67093;SHT31;54011;50.772;7.730;2023-07-13T02:46:55;19.08;60.40
67093;SHT31;54011;50.772;7.730;2023-07-13T02:49:20;18.97;59.24
67093;SHT31;54011;50.772;7.730;2023-07-13T02:51:46;19.15;60.21
67093;SHT31;54011;50.772;7.730;2023-07-13T02:54:12;19.14;60.51
67093;SHT31;54011;50.772;7.730;2023-07-13T02:56:40;18.60;62.46
67093;SHT31;54011;50.772;7.730;2023-07-13T02:59:06;18.52;63.13
67093;SHT31;54011;50.772;7.730;2023-07-13T03:01:32;18.77;62.26
67093;SHT31;54011;50.772;7.730;2023-07-13T03:04:01;18.45;63.28
67093;SHT31;54011;50.772;7.730;2023-07-13T03:06:27;18.41;63.62
67093;SHT31;54011;50.772;7.730;2023-07-13T03:08:56;18.77;62.64
67093;SHT31;54011;50.772;7.730;2023-07-13T03:11:22;18.74;63.19
67093;SHT31;54011;50.772;7.730;2023-07-13T03:13:57;18.99;61.48
67093;SHT31;54011;50.772;7.730;2023-07-13T03:16:23;19.10;61.16
67093;SHT31;54011;50.772;7.730;2023-07-13T03:18:51;19.11;60.00
67093;SHT31;54011;50.772;7.730;2023-07-13T03:21:17;19.23;59.22
67093;SHT31;54011;50.772;7.730;2023-07-13T03:23:42;18.90;59.56
67093;SHT31;54011;50.772;7.730;2023-07-13T03:26:17;19.23;59.42
67093;SHT31;54011;50.772;7.730;2023-07-13T03:28:43;19.18;59.27
67093;SHT31;54011;50.772;7.730;2023-07-13T03:31:17;19.54;59.24
67093;SHT31;54011;50.772;7.730;2023-07-13T03:33:43;19.41;60.63
67093;SHT31;54011;50.772;7.730;2023-07-13T03:36:19;19.23;61.41
67093;SHT31;54011;50.772;7.730;2023-07-13T03:38:50;19.34;59.54
67093;SHT31;54011;50.772;7.730;2023-07-13T03:41:18;19.62;58.74
67093;SHT31;54011;50.772;7.730;2023-07-13T03:43:46;19.58;58.22
67093;SHT31;54011;50.772;7.730;2023-07-13T03:46:17;19.52;59.10
67093;SHT31;54011;50.772;7.730;2023-07-13T03:48:45;19.75;58.44
67093;SHT31;54011;50.772;7.730;2023-07-13T03:51:12;19.76;59.94
67093;SHT31;54011;50.772;7.730;2023-07-13T03:53:42;19.55;60.10
67093;SHT31;54011;50.772;7.730;2023-07-13T03:56:08;19.74;58.93
67093;SHT31;54011;50.772;7.730;2023-07-13T03:58:37;19.82;59.76
67093;SHT31;54011;50.772;7.730;2023-07-13T04:01:22;19.83;58.02
67093;SHT31;54011;50.772;7.730;2023-07-13T04:03:48;20.08;58.52
67093;SHT31;54011;50.772;7.730;2023-07-13T04:06:19;19.74;59.02
67093;SHT31;54011;50.772;7.730;2023-07-13T04:08:57;19.81;58.99
67093;SHT31;54011;50.772;7.730;2023-07-13T04:11:26;19.86;58.07
67093;SHT31;54011;50.772;7.730;2023-07-13T04:13:52;19.75;58.77
67093;SHT31;54011;50.772;7.730;2023-07-13T04:16:18;19.45;58.62
67093;SHT31;54011;50.772;7.730;2023-07-13T04:18:45;19.61;58.66
67093;SHT31;54011;50.772;7.730;2023-07-13T04:21:11;19.81;59.22
67093;SHT31;54011;50.772;7.730;2023-07-13T04:23:37;19.64;60.14
67093;SHT31;54011;50.772;7.730;2023-07-13T04:26:03;19.45;61.07
67093;SHT31;54011;50.772;7.730;2023-07-13T04:28:29;19.41;60.05
67093;SHT31;54011;50.772;7.730;2023-07-13T04:30:55;19.41;59.93
67093;SHT31;54011;50.772;7.730;2023-07-13T04:33:21;19.44;58.69
67093;SHT31;54011;50.772;7.730;2023-07-13T04:35:51;19.45;59.96
67093;SHT31;54011;50.772;7.730;2023-07-13T04:38:26;19.30;61.89
67093;SHT31;54011;50.772;7.730;2023-07-13T04:40:55;19.36;61.98
67093;SHT31;54011;50.772;7.730;2023-07-13T04:43:21;19.30;62.67
67093;SHT31;54011;50.772;7.730;2023-07-13T04:45:47;19.21;62.58
67093;SHT31;54011;50.772;7.730;2023-07-13T04:48:12;19.50;60.86
67093;SHT31;54011;50.772;7.730;2023-07-13T04:50:38;19.47;61.32
67093;SHT31;54011;50.772;7.730;2023-07-13T04:53:04;19.50;62.02
67093;SHT31;54011;50.772;7.730;2023-07-13T04:55:30;19.51;60.29
67093;SHT31;54011;50.772;7.730;2023-07-13T04:57:57;19.65;59.41
67093;SHT31;54011;50.772;7.730;2023-07-13T05:00:26;19.47;61.14
67093;SHT31;54011;50.772;7.730;2023-07-13T05:02:54;19.25;62.27
67093;SHT31;54011;50.772;7.730;2023-07-13T05:05:20;19.45;61.23
67093;SHT31;54011;50.772;7.730;2023-07-13T05:07:45;19.76;59.46
67093;SHT31;54011;50.772;7.730;2023-07-13T05:10:11;19.79;59.59
67093;SHT31;54011;50.772;7.730;2023-07-13T05:12:36;19.85;59.44
67093;SHT31;54011;50.772;7.730;2023-07-13T05:15:02;19.59;58.92
67093;SHT31;54011;50.772;7.730;2023-07-13T05:17:28;19.82;59.60
67093;SHT31;54011;50.772;7.730;2023-07-13T05:19:54;19.69;59.59
67093;SHT31;54011;50.772;7.730;2023-07-13T05:22:20;19.86;59.62
67093;SHT31;54011;50.772;7.730;2023-07-13T05:24:45;19.85;59.37
67093;SHT31;54011;50.772;7.730;2023-07-13T05:27:10;20.05;58.77
67093;SHT31;54011;50.772;7.730;2023-07-13T05:29:36;20.00;59.04
67093;SHT31;54011;50.772;7.730;2023-07-13T05:32:02;20.05;58.30
67093;SHT31;54011;50.772;7.730;2023-07-13T05:34:28;20.06;58.49
67093;SHT31;54011;50.772;7.730;2023-07-13T05:36:54;20.39;58.16
67093;SHT31;54011;50.772;7.730;2023-07-13T05:39:20;20.34;58.16
67093;SHT31;54011;50.772;7.730;2023-07-13T05:41:46;20.41;57.61
67093;SHT31;54011;50.772;7.730;2023-07-13T05:44:11;20.82;57.05
67093;SHT31;54011;50.772;7.730;2023-07-13T05:46:37;20.44;57.67
67093;SHT31;54011;50.772;7.730;2023-07-13T05:49:02;20.85;57.55
67093;SHT31;54011;50.772;7.730;2023-07-13T05:51:29;20.92;57.11
67093;SHT31;54011;50.772;7.730;2023-07-13T05:53:54;21.06;57.20
67093;SHT31;54011;50.772;7.730;2023-07-13T05:56:20;21.25;57.26
67093;SHT31;54011;50.772;7.730;2023-07-13T05:58:47;21.04;58.76
67093;SHT31;54011;50.772;7.730;2023-07-13T06:01:14;20.85;57.40
67093;SHT31;54011;50.772;7.730;2023-07-13T06:03:40;20.75;58.44
67093;SHT31;54011;50.772;7.730;2023-07-13T06:06:07;20.57;58.08
67093;SHT31;54011;50.772;7.730;2023-07-13T06:08:33;20.92;58.08
67093;SHT31;54011;50.772;7.730;2023-07-13T06:11:09;21.19;56.94
67093;SHT31;54011;50.772;7.730;2023-07-13T06:13:35;21.13;56.87
67093;SHT31;54011;50.772;7.730;2023-07-13T06:16:02;21.11;56.86
67093;SHT31;54011;50.772;7.730;2023-07-13T06:18:30;21.52;57.70
67093;SHT31;54011;50.772;7.730;2023-07-13T06:20:56;21.29;58.61
67093;SHT31;54011;50.772;7.730;2023-07-13T06:23:22;21.16;59.30
67093;SHT31;54011;50.772;7.730;2023-07-13T06:25:48;21.21;57.26
67093;SHT31;54011;50.772;7.730;2023-07-13T06:28:14;21.52;58.16
67093;SHT31;54011;50.772;7.730;2023-07-13T06:30:39;21.94;57.43
67093;SHT31;54011;50.772;7.730;2023-07-13T06:33:05;21.73;58.04
67093;SHT31;54011;50.772;7.730;2023-07-13T06:35:31;21.39;57.68
67093;SHT31;54011;50.772;7.730;2023-07-13T06:37:56;21.31;57.34
67093;SHT31;54011;50.772;7.730;2023-07-13T06:40:25;21.79;56.81
67093;SHT31;54011;50.772;7.730;2023-07-13T06:42:50;21.97;56.39
67093;SHT31;54011;50.772;7.730;2023-07-13T06:45:16;21.57;57.33
67093;SHT31;54011;50.772;7.730;2023-07-13T06:47:41;21.67;57.68
67093;SHT31;54011;50.772;7.730;2023-07-13T06:50:07;21.70;56.78
67093;SHT31;54011;50.772;7.730;2023-07-13T06:52:33;22.05;56.17
67093;SHT31;54011;50.772;7.730;2023-07-13T06:54:58;21.87;56.29
67093;SHT31;54011;50.772;7.730;2023-07-13T06:57:24;21.97;56.10
67093;SHT31;54011;50.772;7.730;2023-07-13T06:59:52;22.03;56.58
67093;SHT31;54011;50.772;7.730;2023-07-13T07:02:18;22.34;55.77
67093;SHT31;54011;50.772;7.730;2023-07-13T07:04:43;22.03;56.10
67093;SHT31;54011;50.772;7.730;2023-07-13T07:07:09;22.25;55.83
67093;SHT31;54011;50.772;7.730;2023-07-13T07:09:34;22.08;56.80
67093;SHT31;54011;50.772;7.730;2023-07-13T07:12:00;22.10;56.55
67093;SHT31;54011;50.772;7.730;2023-07-13T07:14:26;22.30;55.47
67093;SHT31;54011;50.772;7.730;2023-07-13T07:16:51;22.66;55.31
67093;SHT31;54011;50.772;7.730;2023-07-13T07:19:17;22.86;54.52
67093;SHT31;54011;50.772;7.730;2023-07-13T07:21:42;22.32;55.79
67093;SHT31;54011;50.772;7.730;2023-07-13T07:24:08;22.93;55.63
67093;SHT31;54011;50.772;7.730;2023-07-13T07:26:34;22.59;56.33
67093;SHT31;54011;50.772;7.730;2023-07-13T07:28:59;22.85;54.69
67093;SHT31;54011;50.772;7.730;2023-07-13T07:31:24;22.47;55.70
67093;SHT31;54011;50.772;7.730;2023-07-13T07:33:50;23.10;55.78
67093;SHT31;54011;50.772;7.730;2023-07-13T07:36:19;22.88;55.55
67093;SHT31;54011;50.772;7.730;2023-07-13T07:38:45;23.54;54.63
67093;SHT31;54011;50.772;7.730;2023-07-13T07:41:11;23.34;54.59
67093;SHT31;54011;50.772;7.730;2023-07-13T07:43:37;23.50;54.59
67093;SHT31;54011;50.772;7.730;2023-07-13T07:46:03;22.86;53.57
67093;SHT31;54011;50.772;7.730;2023-07-13T07:48:29;23.16;53.74
67093;SHT31;54011;50.772;7.730;2023-07-13T07:50:55;23.26;54.40
67093;SHT31;54011;50.772;7.730;2023-07-13T07:53:20;23.33;54.56
67093;SHT31;54011;50.772;7.730;2023-07-13T07:55:46;23.60;53.94
67093;SHT31;54011;50.772;7.730;2023-07-13T07:58:12;23.68;52.61
67093;SHT31;54011;50.772;7.730;2023-07-13T08:00:38;23.68;53.50
67093;SHT31;54011;50.772;7.730;2023-07-13T08:03:04;23.43;53.25
67093;SHT31;54011;50.772;7.730;2023-07-13T08:05:29;24.01;52.53
67093;SHT31;54011;50.772;7.730;2023-07-13T08:07:55;24.01;52.60
67093;SHT31;54011;50.772;7.730;2023-07-13T08:10:20;24.08;52.02
67093;SHT31;54011;50.772;7.730;2023-07-13T08:12:46;23.71;53.59
67093;SHT31;54011;50.772;7.730;2023-07-13T08:15:14;24.19;52.33
67093;SHT31;54011;50.772;7.730;2023-07-13T08:17:40;23.55;52.65
67093;SHT31;54011;50.772;7.730;2023-07-13T08:20:06;24.26;53.26
67093;SHT31;54011;50.772;7.730;2023-07-13T08:22:32;24.08;51.83
67093;SHT31;54011;50.772;7.730;2023-07-13T08:24:59;23.97;51.85
67093;SHT31;54011;50.772;7.730;2023-07-13T08:27:26;23.40;53.45
67093;SHT31;54011;50.772;7.730;2023-07-13T08:29:52;23.43;53.33
67093;SHT31;54011;50.772;7.730;2023-07-13T08:32:19;23.62;51.76
67093;SHT31;54011;50.772;7.730;2023-07-13T08:34:45;24.25;51.98
67093;SHT31;54011;50.772;7.730;2023-07-13T08:37:11;23.92;52.63
67093;SHT31;54011;50.772;7.730;2023-07-13T08:39:36;23.88;51.42
67093;SHT31;54011;50.772;7.730;2023-07-13T08:42:12;24.39;50.73
67093;SHT31;54011;50.772;7.730;2023-07-13T08:47:31;23.70;51.56
67093;SHT31;54011;50.772;7.730;2023-07-13T08:49:57;24.29;51.96
67093;SHT31;54011;50.772;7.730;2023-07-13T08:52:36;24.74;49.90
67093;SHT31;54011;50.772;7.730;2023-07-13T08:55:15;24.94;49.52
67093;SHT31;54011;50.772;7.730;2023-07-13T08:57:46;25.57;49.21
67093;SHT31;54011;50.772;7.730;2023-07-13T09:00:14;25.06;49.34
67093;SHT31;54011;50.772;7.730;2023-07-13T09:02:56;24.13;50.63
67093;SHT31;54011;50.772;7.730;2023-07-13T09:10:31;25.38;50.07
67093;SHT31;54011;50.772;7.730;2023-07-13T09:16:22;26.26;48.73
67093;SHT31;54011;50.772;7.730;2023-07-13T09:18:55;26.48;47.74
67093;SHT31;54011;50.772;7.730;2023-07-13T09:21:24;26.45;46.44
67093;SHT31;54011;50.772;7.730;2023-07-13T09:23:56;26.89;46.40
67093;SHT31;54011;50.772;7.730;2023-07-13T09:26:28;25.83;48.05
67093;SHT31;54011;50.772;7.730;2023-07-13T09:29:03;26.29;47.27
67093;SHT31;54011;50.772;7.730;2023-07-13T09:31:39;26.31;48.22
67093;SHT31;54011;50.772;7.730;2023-07-13T09:34:11;26.10;47.73
67093;SHT31;54011;50.772;7.730;2023-07-13T09:36:36;26.47;47.87
67093;SHT31;54011;50.772;7.730;2023-07-13T09:44:12;25.93;49.01
67093;SHT31;54011;50.772;7.730;2023-07-13T09:46:43;25.65;48.86
67093;SHT31;54011;50.772;7.730;2023-07-13T09:49:10;25.42;49.43
67093;SHT31;54011;50.772;7.730;2023-07-13T09:51:42;25.72;48.92
67093;SHT31;54011;50.772;7.730;2023-07-13T09:54:24;26.24;47.88
67093;SHT31;54011;50.772;7.730;2023-07-13T09:56:57;26.57;47.51
67093;SHT31;54011;50.772;7.730;2023-07-13T09:59:30;26.14;47.62
67093;SHT31;54011;50.772;7.730;2023-07-13T10:01:56;25.99;47.88
67093;SHT31;54011;50.772;7.730;2023-07-13T10:04:29;25.30;48.66
67093;SHT31;54011;50.772;7.730;2023-07-13T10:07:09;26.01;47.80
67093;SHT31;54011;50.772;7.730;2023-07-13T10:09:36;26.54;48.44
67093;SHT31;54011;50.772;7.730;2023-07-13T10:12:04;27.46;46.29
67093;SHT31;54011;50.772;7.730;2023-07-13T10:14:38;28.84;43.44
67093;SHT31;54011;50.772;7.730;2023-07-13T10:17:08;28.58;43.16
67093;SHT31;54011;50.772;7.730;2023-07-13T10:19:35;28.80;44.33
67093;SHT31;54011;50.772;7.730;2023-07-13T10:22:14;27.93;45.32
67093;SHT31;54011;50.772;7.730;2023-07-13T10:24:42;27.54;45.33
67093;SHT31;54011;50.772;7.730;2023-07-13T10:27:20;27.51;44.73
67093;SHT31;54011;50.772;7.730;2023-07-13T10:29:59;27.66;44.29
67093;SHT31;54011;50.772;7.730;2023-07-13T10:32:26;28.29;44.45
67093;SHT31;54011;50.772;7.730;2023-07-13T10:34:52;27.74;44.06
67093;SHT31;54011;50.772;7.730;2023-07-13T10:37:27;27.86;44.40
67093;SHT31;54011;50.772;7.730;2023-07-13T10:39:56;27.76;44.09
67093;SHT31;54011;50.772;7.730;2023-07-13T10:42:44;27.18;44.52
67093;SHT31;54011;50.772;7.730;2023-07-13T10:45:19;28.56;42.10
67093;SHT31;54011;50.772;7.730;2023-07-13T10:47:45;28.24;43.64
67093;SHT31;54011;50.772;7.730;2023-07-13T10:50:23;27.91;45.23
67093;SHT31;54011;50.772;7.730;2023-07-13T10:52:54;27.51;45.48
67093;SHT31;54011;50.772;7.730;2023-07-13T10:55:31;27.36;45.09
67093;SHT31;54011;50.772;7.730;2023-07-13T10:58:02;27.33;44.31
67093;SHT31;54011;50.772;7.730;2023-07-13T11:00:31;26.91;45.80
67093;SHT31;54011;50.772;7.730;2023-07-13T11:02:59;26.94;45.14
67093;SHT31;54011;50.772;7.730;2023-07-13T11:05:31;27.09;45.34
67093;SHT31;54011;50.772;7.730;2023-07-13T11:08:20;27.39;45.75
67093;SHT31;54011;50.772;7.730;2023-07-13T11:10:54;28.62;43.72
67093;SHT31;54011;50.772;7.730;2023-07-13T11:13:36;29.04;41.35
67093;SHT31;54011;50.772;7.730;2023-07-13T11:16:13;27.60;43.77
67093;SHT31;54011;50.772;7.730;2023-07-13T11:18:38;27.81;42.41
67093;SHT31;54011;50.772;7.730;2023-07-13T11:21:33;27.23;45.14
67093;SHT31;54011;50.772;7.730;2023-07-13T11:26:43;26.29;46.32
67093;SHT31;54011;50.772;7.730;2023-07-13T11:31:58;26.27;44.72
67093;SHT31;54011;50.772;7.730;2023-07-13T11:34:28;26.95;44.69
67093;SHT31;54011;50.772;7.730;2023-07-13T11:36:56;26.71;43.94
67093;SHT31;54011;50.772;7.730;2023-07-13T11:39:32;27.42;44.00
67093;SHT31;54011;50.772;7.730;2023-07-13T11:42:01;28.09;43.58
67093;SHT31;54011;50.772;7.730;2023-07-13T11:44:30;28.99;42.18
67093;SHT31;54011;50.772;7.730;2023-07-13T11:46:58;27.08;43.74
67093;SHT31;54011;50.772;7.730;2023-07-13T11:49:29;26.64;44.19
67093;SHT31;54011;50.772;7.730;2023-07-13T11:51:56;26.06;47.02
67093;SHT31;54011;50.772;7.730;2023-07-13T11:54:28;26.51;47.78
67093;SHT31;54011;50.772;7.730;2023-07-13T11:56:58;26.19;47.58
67093;SHT31;54011;50.772;7.730;2023-07-13T11:59:27;26.57;45.95
67093;SHT31;54011;50.772;7.730;2023-07-13T12:01:55;26.48;45.68
67093;SHT31;54011;50.772;7.730;2023-07-13T12:06:54;27.10;44.84
67093;SHT31;54011;50.772;7.730;2023-07-13T12:09:20;27.71;45.33
67093;SHT31;54011;50.772;7.730;2023-07-13T12:11:50;28.48;45.17
67093;SHT31;54011;50.772;7.730;2023-07-13T12:14:17;27.94;44.84
67093;SHT31;54011;50.772;7.730;2023-07-13T12:16:45;27.61;44.95
67093;SHT31;54011;50.772;7.730;2023-07-13T12:19:21;27.39;46.24
67093;SHT31;54011;50.772;7.730;2023-07-13T12:21:48;27.39;45.21
67093;SHT31;54011;50.772;7.730;2023-07-13T12:24:19;26.96;45.49
67093;SHT31;54011;50.772;7.730;2023-07-13T12:26:54;26.89;46.39
67093;SHT31;54011;50.772;7.730;2023-07-13T12:29:20;27.16;45.96
67093;SHT31;54011;50.772;7.730;2023-07-13T12:31:49;27.29;45.09
67093;SHT31;54011;50.772;7.730;2023-07-13T12:34:22;27.86;44.76
67093;SHT31;54011;50.772;7.730;2023-07-13T12:37:00;26.96;45.53
67093;SHT31;54011;50.772;7.730;2023-07-13T12:39:44;27.42;45.68
67093;SHT31;54011;50.772;7.730;2023-07-13T12:42:18;27.13;44.19
67093;SHT31;54011;50.772;7.730;2023-07-13T12:44:46;27.81;43.64
67093;SHT31;54011;50.772;7.730;2023-07-13T12:47:13;28.48;42.67
67093;SHT31;54011;50.772;7.730;2023-07-13T12:49:47;27.47;44.43
67093;SHT31;54011;50.772;7.730;2023-07-13T12:52:20;27.54;43.85
67093;SHT31;54011;50.772;7.730;2023-07-13T12:54:54;27.74;43.63
67093;SHT31;54011;50.772;7.730;2023-07-13T12:57:24;27.18;44.38
67093;SHT31;54011;50.772;7.730;2023-07-13T12:59:54;26.89;43.00
67093;SHT31;54011;50.772;7.730;2023-07-13T13:04:55;28.07;39.99
67093;SHT31;54011;50.772;7.730;2023-07-13T13:07:25;27.81;40.36
67093;SHT31;54011;50.772;7.730;2023-07-13T13:09:51;27.49;40.86
67093;SHT31;54011;50.772;7.730;2023-07-13T13:12:19;27.28;41.25
67093;SHT31;54011;50.772;7.730;2023-07-13T13:14:44;27.84;41.16
67093;SHT31;54011;50.772;7.730;2023-07-13T13:17:20;26.51;41.92
67093;SHT31;54011;50.772;7.730;2023-07-13T13:19:47;27.33;40.83
67093;SHT31;54011;50.772;7.730;2023-07-13T13:22:12;26.96;40.88
67093;SHT31;54011;50.772;7.730;2023-07-13T13:24:39;27.54;40.70
67093;SHT31;54011;50.772;7.730;2023-07-13T13:27:04;27.77;39.77
67093;SHT31;54011;50.772;7.730;2023-07-13T13:29:32;28.17;39.84
67093;SHT31;54011;50.772;7.730;2023-07-13T13:31:58;28.00;39.35
67093;SHT31;54011;50.772;7.730;2023-07-13T13:34:25;27.37;40.72
67093;SHT31;54011;50.772;7.730;2023-07-13T13:36:51;26.78;42.54
67093;SHT31;54011;50.772;7.730;2023-07-13T13:39:31;26.62;42.12
67093;SHT31;54011;50.772;7.730;2023-07-13T13:41:58;26.91;41.56
67093;SHT31;54011;50.772;7.730;2023-07-13T13:44:24;26.95;42.20
67093;SHT31;54011;50.772;7.730;2023-07-13T13:46:51;26.94;42.49
67093;SHT31;54011;50.772;7.730;2023-07-13T13:49:20;26.77;41.42
67093;SHT31;54011;50.772;7.730;2023-07-13T13:51:46;27.00;42.10
67093;SHT31;54011;50.772;7.730;2023-07-13T13:54:14;27.39;42.20
67093;SHT31;54011;50.772;7.730;2023-07-13T13:56:43;27.25;42.78
67093;SHT31;54011;50.772;7.730;2023-07-13T13:59:09;27.28;42.45
67093;SHT31;54011;50.772;7.730;2023-07-13T14:01:35;27.49;43.35
67093;SHT31;54011;50.772;7.730;2023-07-13T14:04:00;27.49;44.06
67093;SHT31;54011;50.772;7.730;2023-07-13T14:06:26;27.96;42.41
67093;SHT31;54011;50.772;7.730;2023-07-13T14:08:52;28.18;42.66
67093;SHT31;54011;50.772;7.730;2023-07-13T14:11:21;28.41;42.51
67093;SHT31;54011;50.772;7.730;2023-07-13T14:13:51;27.70;43.57
67093;SHT31;54011;50.772;7.730;2023-07-13T14:16:18;27.81;43.42
67093;SHT31;54011;50.772;7.730;2023-07-13T14:18:45;28.04;44.02
67093;SHT31;54011;50.772;7.730;2023-07-13T14:21:13;28.90;43.51
67093;SHT31;54011;50.772;7.730;2023-07-13T14:23:39;29.62;39.90
67093;SHT31;54011;50.772;7.730;2023-07-13T14:26:17;29.48;39.87
67093;SHT31;54011;50.772;7.730;2023-07-13T14:28:45;29.62;41.01
67093;SHT31;54011;50.772;7.730;2023-07-13T14:31:13;28.96;41.38
67093;SHT31;54011;50.772;7.730;2023-07-13T14:33:39;28.65;42.35
67093;SHT31;54011;50.772;7.730;2023-07-13T14:36:29;28.45;41.83
67093;SHT31;54011;50.772;7.730;2023-07-13T14:38:57;29.10;40.40
67093;SHT31;54011;50.772;7.730;2023-07-13T14:41:23;30.56;39.56
67093;SHT31;54011;50.772;7.730;2023-07-13T14:43:48;30.57;37.16
67093;SHT31;54011;50.772;7.730;2023-07-13T14:46:33;31.08;36.75
67093;SHT31;54011;50.772;7.730;2023-07-13T14:49:42;30.40;37.93
67093;SHT31;54011;50.772;7.730;2023-07-13T14:52:13;30.33;40.06
67093;SHT31;54011;50.772;7.730;2023-07-13T14:54:40;29.68;39.08
67093;SHT31;54011;50.772;7.730;2023-07-13T14:57:10;31.22;38.08
67093;SHT31;54011;50.772;7.730;2023-07-13T14:59:50;31.05;37.85
67093;SHT31;54011;50.772;7.730;2023-07-13T15:02:28;30.98;37.93
67093;SHT31;54011;50.772;7.730;2023-07-13T15:04:55;32.43;36.84
67093;SHT31;54011;50.772;7.730;2023-07-13T15:07:21;33.36;35.65
67093;SHT31;54011;50.772;7.730;2023-07-13T15:09:52;32.51;35.43
67093;SHT31;54011;50.772;7.730;2023-07-13T15:12:18;31.14;36.82
67093;SHT31;54011;50.772;7.730;2023-07-13T15:14:44;31.79;36.08
67093;SHT31;54011;50.772;7.730;2023-07-13T15:17:36;31.28;37.15
67093;SHT31;54011;50.772;7.730;2023-07-13T15:22:48;29.59;37.84
67093;SHT31;54011;50.772;7.730;2023-07-13T15:25:17;29.89;38.18
67093;SHT31;54011;50.772;7.730;2023-07-13T15:27:43;29.00;38.46
67093;SHT31;54011;50.772;7.730;2023-07-13T15:30:10;28.32;39.48
67093;SHT31;54011;50.772;7.730;2023-07-13T15:32:36;28.72;40.07
67093;SHT31;54011;50.772;7.730;2023-07-13T15:35:02;28.42;40.44
67093;SHT31;54011;50.772;7.730;2023-07-13T15:37:29;28.31;39.56
67093;SHT31;54011;50.772;7.730;2023-07-13T15:39:54;28.24;40.73
67093;SHT31;54011;50.772;7.730;2023-07-13T15:42:22;28.70;40.01
67093;SHT31;54011;50.772;7.730;2023-07-13T15:44:47;28.34;40.91
67093;SHT31;54011;50.772;7.730;2023-07-13T15:47:14;28.00;39.80
67093;SHT31;54011;50.772;7.730;2023-07-13T15:49:41;28.53;39.71
67093;SHT31;54011;50.772;7.730;2023-07-13T15:52:34;28.24;40.65
67093;SHT31;54011;50.772;7.730;2023-07-13T15:55:00;27.78;41.45
67093;SHT31;54011;50.772;7.730;2023-07-13T15:57:26;28.32;41.24
67093;SHT31;54011;50.772;7.730;2023-07-13T15:59:52;28.90;39.36
67093;SHT31;54011;50.772;7.730;2023-07-13T16:02:19;30.15;37.96
67093;SHT31;54011;50.772;7.730;2023-07-13T16:04:46;30.61;39.09
67093;SHT31;54011;50.772;7.730;2023-07-13T16:07:13;31.11;36.05